Weather Data

Pearl Creek Farm: 8878 N Farm Road 75, Walnut Grove MO 65770

<== Previous Day (Tuesday 02 Sep 2014) | Next Day (Thursday 04 Sep 2014) ==>

Summary Precipitation Data For Wednesday 03 September 2014

ElementValueUnits
Precipitation0.28"
NotesStorms mainly skirted us to the north.
SourcePearl Creek Farm

Summary Temperature Data For Wednesday 03 September 2014

ElementValueUnits
High Temperature88 oF
Low Temperature69 oF
Average Temperature76 oF
High Humidity94 %
Low Humidity68 %
Average Humidity85 %
SourcePearl Creek Farm

Detail Temperature Data For Wednesday 03 September 2014

Date / TimeTemp (F)RH (%)Dew Pt (F)Report Date / TimeSource
2014-09-03 00:00:00 69 91 66.3 2014-11-02 13:41:02 Pearl Creek Farm
2014-09-03 00:30:00 69 92 66.4 2014-11-02 13:41:02 Pearl Creek Farm
2014-09-03 01:00:00 69 92 66.4 2014-11-02 13:41:02 Pearl Creek Farm
2014-09-03 01:30:00 69 92 66.4 2014-11-02 13:41:02 Pearl Creek Farm
2014-09-03 02:00:00 70 93 67.7 2014-11-02 13:41:02 Pearl Creek Farm
2014-09-03 02:30:00 70 93 67.7 2014-11-02 13:41:02 Pearl Creek Farm
2014-09-03 03:00:00 70 92 67.6 2014-11-02 13:41:02 Pearl Creek Farm
2014-09-03 03:30:00 70 93 67.7 2014-11-02 13:41:02 Pearl Creek Farm
2014-09-03 04:00:00 70 93 67.9 2014-11-02 13:41:02 Pearl Creek Farm
2014-09-03 04:30:00 70 93 67.9 2014-11-02 13:41:02 Pearl Creek Farm
2014-09-03 05:00:00 70 93 67.7 2014-11-02 13:41:02 Pearl Creek Farm
2014-09-03 05:30:00 69 93 66.7 2014-11-02 13:41:02 Pearl Creek Farm
2014-09-03 06:00:00 69 93 66.9 2014-11-02 13:41:02 Pearl Creek Farm
2014-09-03 06:30:00 69 93 66.9 2014-11-02 13:41:02 Pearl Creek Farm
2014-09-03 07:00:00 69 93 66.9 2014-11-02 13:41:02 Pearl Creek Farm
2014-09-03 07:30:00 69 93 66.9 2014-11-02 13:41:02 Pearl Creek Farm
2014-09-03 08:00:00 70 94 68.0 2014-11-02 13:41:02 Pearl Creek Farm
2014-09-03 08:30:00 70 94 68.0 2014-11-02 13:41:02 Pearl Creek Farm
2014-09-03 09:00:00 72 93 69.7 2014-11-02 13:41:02 Pearl Creek Farm
2014-09-03 09:30:00 73 90 69.7 2014-11-02 13:41:02 Pearl Creek Farm
2014-09-03 10:00:00 74 89 70.4 2014-11-02 13:41:02 Pearl Creek Farm
2014-09-03 10:30:00 75 88 71.2 2014-11-02 13:41:02 Pearl Creek Farm
2014-09-03 11:00:00 75 89 71.4 2014-11-02 13:41:02 Pearl Creek Farm
2014-09-03 11:30:00 78 87 73.8 2014-11-02 13:41:02 Pearl Creek Farm
2014-09-03 12:00:00 76 83 70.5 2014-11-02 13:41:02 Pearl Creek Farm
2014-09-03 12:30:00 74 86 69.5 2014-11-02 13:41:02 Pearl Creek Farm
2014-09-03 13:00:00 75 90 71.7 2014-11-02 13:41:02 Pearl Creek Farm
2014-09-03 13:30:00 77 88 73.2 2014-11-02 13:41:02 Pearl Creek Farm
2014-09-03 14:00:00 79 87 74.6 2014-11-02 13:41:02 Pearl Creek Farm
2014-09-03 14:30:00 82 84 76.7 2014-11-02 13:41:02 Pearl Creek Farm
2014-09-03 15:00:00 85 77 77.0 2014-11-02 13:41:02 Pearl Creek Farm
2014-09-03 15:30:00 87 71 76.2 2014-11-02 13:41:02 Pearl Creek Farm
2014-09-03 16:00:00 88 69 76.3 2014-11-02 13:41:02 Pearl Creek Farm
2014-09-03 16:30:00 88 69 76.5 2014-11-02 13:41:02 Pearl Creek Farm
2014-09-03 17:00:00 88 68 75.9 2014-11-02 13:41:02 Pearl Creek Farm
2014-09-03 17:30:00 87 68 74.9 2014-11-02 13:41:02 Pearl Creek Farm
2014-09-03 18:00:00 87 68 75.1 2014-11-02 13:41:02 Pearl Creek Farm
2014-09-03 18:30:00 86 70 75.1 2014-11-02 13:41:02 Pearl Creek Farm
2014-09-03 19:00:00 85 73 75.4 2014-11-02 13:41:02 Pearl Creek Farm
2014-09-03 19:30:00 83 78 75.2 2014-11-02 13:41:02 Pearl Creek Farm
2014-09-03 20:00:00 81 81 74.4 2014-11-02 13:41:02 Pearl Creek Farm
2014-09-03 20:30:00 80 81 73.5 2014-11-02 13:41:02 Pearl Creek Farm
2014-09-03 21:00:00 79 82 73.0 2014-11-02 13:41:02 Pearl Creek Farm
2014-09-03 21:30:00 78 83 72.2 2014-11-02 13:41:02 Pearl Creek Farm
2014-09-03 22:00:00 78 85 72.9 2014-11-02 13:41:02 Pearl Creek Farm
2014-09-03 22:30:00 78 84 72.8 2014-11-02 13:41:02 Pearl Creek Farm
2014-09-03 23:00:00 77 86 72.3 2014-11-02 13:41:02 Pearl Creek Farm
2014-09-03 23:30:00 77 86 72.5 2014-11-02 13:41:02 Pearl Creek Farm

A total of 48 rows are displayed.